createdAt,value
2023-01-05T00:01:14.940Z,984.0
2023-01-05T00:06:46.856Z,984.3
2023-01-05T00:12:18.417Z,984.02
2023-01-05T00:17:50.289Z,984.11
2023-01-05T00:23:28.390Z,984.42
2023-01-05T00:28:59.928Z,984.47
2023-01-05T00:34:31.799Z,984.41
2023-01-05T00:40:03.685Z,984.43
2023-01-05T00:45:36.188Z,984.41
2023-01-05T00:51:07.423Z,984.36
2023-01-05T00:56:38.910Z,984.41
2023-01-05T01:02:11.224Z,984.49
2023-01-05T01:07:42.392Z,984.5
2023-01-05T01:13:13.991Z,984.44
2023-01-05T01:18:46.456Z,984.61
2023-01-05T01:24:21.945Z,984.52
2023-01-05T01:29:53.768Z,984.6
2023-01-05T01:35:25.265Z,984.51
2023-01-05T01:40:57.319Z,984.41
2023-01-05T01:46:28.767Z,984.61
2023-01-05T01:52:00.695Z,984.68
2023-01-05T01:57:32.083Z,984.49
2023-01-05T02:03:03.897Z,985.05
2023-01-05T02:08:36.228Z,984.92
2023-01-05T02:14:07.677Z,984.71
2023-01-05T02:19:38.830Z,984.76
2023-01-05T02:25:14.963Z,984.53
2023-01-05T02:30:46.852Z,984.58
2023-01-05T02:36:28.635Z,984.56
2023-01-05T02:41:50.054Z,984.26
2023-01-05T02:47:21.804Z,984.59
2023-01-05T02:52:53.626Z,984.59
2023-01-05T02:58:25.240Z,984.7
2023-01-05T03:03:57.029Z,984.35
2023-01-05T03:09:28.940Z,984.54
2023-01-05T03:15:00.662Z,984.46
2023-01-05T03:20:32.346Z,984.71
2023-01-05T03:26:10.351Z,984.76
2023-01-05T03:31:42.348Z,984.87
2023-01-05T03:37:13.795Z,984.97
2023-01-05T03:42:45.568Z,984.96
2023-01-05T03:48:17.239Z,984.96
2023-01-05T03:53:49.098Z,985.11
2023-01-05T03:59:20.668Z,985.09
2023-01-05T04:04:52.489Z,985.14
2023-01-05T04:10:24.271Z,984.76
2023-01-05T04:15:56.188Z,985.06
2023-01-05T04:21:27.631Z,985.18
2023-01-05T04:27:03.671Z,985.4
2023-01-05T04:32:35.454Z,984.87
2023-01-05T04:38:07.285Z,984.67
2023-01-05T04:43:38.735Z,984.7
2023-01-05T04:49:10.691Z,984.84
2023-01-05T04:54:42.251Z,984.67
2023-01-05T05:00:14.039Z,984.91
2023-01-05T05:05:45.775Z,984.48
2023-01-05T05:11:17.390Z,984.69
2023-01-05T05:16:49.505Z,984.87
2023-01-05T05:22:20.873Z,984.96
2023-01-05T05:27:57.080Z,984.42
2023-01-05T05:33:28.813Z,984.74
2023-01-05T05:39:00.714Z,984.21
2023-01-05T05:44:32.304Z,984.75
2023-01-05T05:50:04.001Z,984.6
2023-01-05T05:55:35.760Z,984.7
2023-01-05T06:01:07.739Z,984.99
2023-01-05T06:06:39.154Z,984.85
2023-01-05T06:12:11.175Z,984.96
2023-01-05T06:17:42.564Z,984.98
2023-01-05T06:23:14.325Z,985.02
2023-01-05T06:28:50.652Z,985.17
2023-01-05T06:34:22.419Z,985.15
2023-01-05T06:39:54.087Z,985.54
2023-01-05T06:45:25.824Z,985.62
2023-01-05T06:50:57.357Z,985.28
2023-01-05T06:56:29.536Z,985.73
2023-01-05T07:02:00.946Z,985.57
2023-01-05T07:07:32.563Z,986.04
2023-01-05T07:13:04.244Z,986.32
2023-01-05T07:18:35.972Z,986.01
2023-01-05T07:24:07.714Z,986.04
2023-01-05T07:29:43.687Z,986.48
2023-01-05T07:35:15.415Z,986.46
2023-01-05T07:40:47.273Z,986.27
2023-01-05T07:46:18.986Z,986.61
2023-01-05T07:51:51.118Z,986.37
2023-01-05T07:57:22.274Z,986.6
2023-01-05T08:02:54.140Z,986.51
2023-01-05T08:08:26.013Z,986.9
2023-01-05T08:13:57.767Z,986.9
2023-01-05T08:19:29.451Z,987.04
2023-01-05T08:25:01.227Z,986.93
2023-01-05T08:31:04.297Z,986.83
2023-01-05T08:36:35.908Z,987.2
2023-01-05T08:42:07.700Z,987.1
2023-01-05T08:47:39.310Z,987.16
2023-01-05T08:53:11.038Z,987.34
2023-01-05T08:58:42.872Z,987.46
2023-01-05T09:04:14.605Z,987.34
2023-01-05T09:09:46.315Z,987.17
2023-01-05T09:15:17.958Z,987.28
2023-01-05T09:20:49.816Z,987.43
2023-01-05T09:26:21.362Z,987.3
2023-01-05T09:31:57.571Z,987.25
2023-01-05T09:37:29.176Z,987.44
2023-01-05T09:43:00.994Z,987.38
2023-01-05T09:48:32.687Z,987.17
2023-01-05T09:54:04.317Z,987.13
2023-01-05T09:59:36.256Z,987.33
2023-01-05T10:05:08.424Z,987.36
2023-01-05T10:10:39.468Z,987.18
2023-01-05T10:16:11.448Z,987.21
2023-01-05T10:21:43.071Z,987.5
2023-01-05T10:27:27.060Z,987.2
2023-01-05T10:32:51.680Z,987.29
2023-01-05T10:38:22.609Z,987.4
2023-01-05T10:43:54.329Z,987.38
2023-01-05T10:49:26.224Z,987.33
2023-01-05T10:54:57.931Z,987.28
2023-01-05T11:00:29.469Z,987.39
2023-01-05T11:06:01.200Z,987.46
2023-01-05T11:11:33.114Z,987.61
2023-01-05T11:17:04.762Z,987.61
2023-01-05T11:22:36.515Z,987.78
2023-01-05T11:28:08.047Z,987.28
2023-01-05T11:33:44.414Z,987.22
2023-01-05T11:39:15.927Z,987.18
2023-01-05T11:44:47.706Z,987.35
2023-01-05T11:50:19.287Z,987.13
2023-01-05T11:55:51.235Z,987.06
2023-01-05T12:01:23.064Z,987.49
2023-01-05T12:06:54.499Z,987.35
2023-01-05T12:12:26.347Z,987.07
2023-01-05T12:17:58.122Z,987.03
2023-01-05T12:23:29.676Z,987.19
2023-01-05T12:34:37.510Z,986.78
2023-01-05T12:40:09.611Z,986.84
2023-01-05T12:45:41.227Z,986.65
2023-01-05T12:51:12.786Z,986.76
2023-01-05T12:56:44.339Z,986.9
2023-01-05T13:02:16.789Z,986.89
2023-01-05T13:07:48.080Z,986.87
2023-01-05T13:13:19.664Z,986.55
2023-01-05T13:18:51.950Z,986.64
2023-01-05T13:24:23.426Z,986.77
2023-01-05T13:29:54.954Z,986.74
2023-01-05T13:35:33.129Z,986.8
2023-01-05T13:41:04.673Z,986.71
2023-01-05T13:46:36.509Z,986.8
2023-01-05T13:52:08.177Z,986.64
2023-01-05T13:57:40.040Z,987.05
2023-01-05T14:03:11.706Z,987.04
2023-01-05T14:08:43.735Z,986.85
2023-01-05T14:14:15.125Z,986.56
2023-01-05T14:19:46.752Z,986.72
2023-01-05T14:25:18.385Z,986.59
2023-01-05T14:30:50.110Z,986.92
2023-01-05T14:36:26.135Z,987.14
2023-01-05T14:41:57.968Z,987.09
2023-01-05T14:47:29.645Z,987.09
2023-01-05T14:53:01.638Z,987.03
2023-01-05T14:58:33.647Z,987.01
2023-01-05T15:04:04.820Z,987.32
2023-01-05T15:09:36.570Z,987.22
2023-01-05T15:15:08.381Z,987.14
2023-01-05T15:20:40.163Z,986.88
2023-01-05T15:26:11.735Z,987.2
2023-01-05T15:31:49.642Z,986.99
2023-01-05T15:37:19.857Z,986.94
2023-01-05T15:42:51.427Z,986.95
2023-01-05T15:48:23.619Z,986.73
2023-01-05T15:53:55.021Z,986.9
2023-01-05T15:59:26.681Z,987.0
2023-01-05T16:04:58.534Z,986.97
2023-01-05T16:10:30.146Z,986.55
2023-01-05T16:16:01.930Z,986.9
2023-01-05T16:21:33.661Z,987.22
2023-01-05T16:27:05.494Z,987.38
2023-01-05T16:32:37.264Z,987.65
2023-01-05T16:38:13.121Z,987.43
2023-01-05T16:43:44.839Z,987.8
2023-01-05T16:49:16.603Z,987.62
2023-01-05T16:54:48.272Z,987.5
2023-01-05T17:00:20.143Z,987.54
2023-01-05T17:05:51.679Z,987.59
2023-01-05T17:11:23.420Z,987.57
2023-01-05T17:16:55.655Z,987.16
2023-01-05T17:22:26.695Z,986.98
2023-01-05T17:27:58.638Z,986.8
2023-01-05T17:33:30.488Z,986.69
2023-01-05T17:39:08.576Z,987.13
2023-01-05T17:44:40.106Z,986.9
2023-01-05T17:50:11.989Z,986.48
2023-01-05T17:55:43.699Z,986.28
2023-01-05T18:01:15.556Z,986.18
2023-01-05T18:06:49.819Z,986.32
2023-01-05T18:12:18.816Z,986.36
2023-01-05T18:17:50.736Z,986.21
2023-01-05T18:23:22.386Z,986.28
2023-01-05T18:28:54.003Z,986.28
2023-01-05T18:34:25.959Z,985.97
2023-01-05T18:40:02.206Z,985.51
2023-01-05T18:45:40.800Z,985.49
2023-01-05T18:51:05.440Z,985.18
2023-01-05T18:56:37.427Z,984.88
2023-01-05T19:02:08.906Z,984.99
2023-01-05T19:07:40.629Z,985.17
2023-01-05T19:13:12.302Z,985.3
2023-01-05T19:18:43.900Z,985.47
2023-01-05T19:24:15.739Z,985.69
2023-01-05T19:29:47.565Z,985.82
2023-01-05T19:35:19.016Z,985.85
2023-01-05T19:40:57.202Z,985.73
2023-01-05T19:46:29.083Z,985.43
2023-01-05T19:52:00.799Z,985.29
2023-01-05T19:57:32.414Z,985.16
2023-01-05T20:03:04.564Z,985.15
2023-01-05T20:08:35.971Z,984.8
2023-01-05T20:14:10.764Z,984.98
2023-01-05T20:19:39.450Z,985.34
2023-01-05T20:25:11.171Z,985.44
2023-01-05T20:30:43.008Z,985.72
2023-01-05T20:36:15.354Z,985.56
2023-01-05T20:41:53.242Z,985.73
2023-01-05T20:47:24.629Z,985.62
2023-01-05T20:52:56.518Z,985.54
2023-01-05T20:58:28.057Z,985.58
2023-01-05T21:04:00.067Z,986.15
2023-01-05T21:04:49.171Z,986.13
2023-01-05T21:10:20.946Z,985.89
2023-01-05T21:15:52.602Z,986.16
2023-01-05T21:21:24.338Z,986.33
2023-01-05T21:26:56.028Z,986.54
2023-01-05T21:32:27.823Z,986.5
2023-01-05T21:37:59.815Z,986.39
2023-01-05T21:43:31.368Z,986.19
2023-01-05T21:49:03.001Z,986.1
2023-01-05T21:54:35.067Z,986.08
2023-01-05T22:00:06.412Z,985.55
2023-01-05T22:05:42.771Z,985.39
2023-01-05T22:11:14.291Z,985.54
2023-01-05T22:16:46.295Z,985.6
2023-01-05T22:22:17.912Z,985.02
2023-01-05T22:27:49.550Z,985.25
2023-01-05T22:33:21.924Z,985.35
2023-01-05T22:38:53.127Z,985.56
2023-01-05T22:44:24.857Z,985.83
2023-01-05T22:49:56.541Z,986.14
2023-01-05T22:55:28.490Z,985.9
2023-01-05T23:01:01.371Z,985.5
2023-01-05T23:06:37.417Z,985.7
2023-01-05T23:12:09.626Z,985.85
2023-01-05T23:17:40.780Z,985.71
2023-01-05T23:23:12.388Z,985.78
2023-01-05T23:28:44.229Z,985.67
2023-01-05T23:34:15.876Z,985.88
2023-01-05T23:39:47.652Z,986.01
2023-01-05T23:45:19.220Z,985.91
2023-01-05T23:50:51.036Z,985.67
2023-01-05T23:56:22.885Z,986.01
